sensor_id;sensor_type;location;lat;lon;timestamp;temperature;humidity
15328;DHT22;7764;51.430;6.840;2022-09-12T00:01:04;14.90;99.90
15328;DHT22;7764;51.430;6.840;2022-09-12T00:03:31;14.90;99.90
15328;DHT22;7764;51.430;6.840;2022-09-12T00:05:58;15.00;99.90
15328;DHT22;7764;51.430;6.840;2022-09-12T00:08:25;14.90;99.90
15328;DHT22;7764;51.430;6.840;2022-09-12T00:10:52;14.80;99.90
15328;DHT22;7764;51.430;6.840;2022-09-12T00:13:20;14.80;99.90
15328;DHT22;7764;51.430;6.840;2022-09-12T00:15:47;14.90;99.90
15328;DHT22;7764;51.430;6.840;2022-09-12T00:18:15;14.80;99.90
15328;DHT22;7764;51.430;6.840;2022-09-12T00:20:43;14.80;99.90
15328;DHT22;7764;51.430;6.840;2022-09-12T00:23:11;14.80;99.90
15328;DHT22;7764;51.430;6.840;2022-09-12T00:25:41;14.80;99.90
15328;DHT22;7764;51.430;6.840;2022-09-12T00:28:09;14.80;99.90
15328;DHT22;7764;51.430;6.840;2022-09-12T00:30:41;14.80;99.90
15328;DHT22;7764;51.430;6.840;2022-09-12T00:33:08;14.80;99.90
15328;DHT22;7764;51.430;6.840;2022-09-12T00:35:40;14.80;99.90
15328;DHT22;7764;51.430;6.840;2022-09-12T00:38:07;14.80;99.90
15328;DHT22;7764;51.430;6.840;2022-09-12T00:40:34;14.80;99.90
15328;DHT22;7764;51.430;6.840;2022-09-12T00:43:01;14.80;99.90
15328;DHT22;7764;51.430;6.840;2022-09-12T00:45:30;14.70;99.90
15328;DHT22;7764;51.430;6.840;2022-09-12T00:48:01;14.70;99.90
15328;DHT22;7764;51.430;6.840;2022-09-12T00:50:30;14.70;99.90
15328;DHT22;7764;51.430;6.840;2022-09-12T00:53:02;14.70;99.90
15328;DHT22;7764;51.430;6.840;2022-09-12T00:55:33;14.70;99.90
15328;DHT22;7764;51.430;6.840;2022-09-12T00:58:05;14.70;99.90
15328;DHT22;7764;51.430;6.840;2022-09-12T01:00:34;14.70;99.90
15328;DHT22;7764;51.430;6.840;2022-09-12T01:03:04;14.60;99.90
15328;DHT22;7764;51.430;6.840;2022-09-12T01:05:34;14.60;99.90
15328;DHT22;7764;51.430;6.840;2022-09-12T01:08:03;14.60;99.90
15328;DHT22;7764;51.430;6.840;2022-09-12T01:10:30;14.60;99.90
15328;DHT22;7764;51.430;6.840;2022-09-12T01:13:00;14.60;99.90
15328;DHT22;7764;51.430;6.840;2022-09-12T01:15:27;14.60;99.90
15328;DHT22;7764;51.430;6.840;2022-09-12T01:18:06;14.60;99.90
15328;DHT22;7764;51.430;6.840;2022-09-12T01:20:58;14.60;99.90
15328;DHT22;7764;51.430;6.840;2022-09-12T01:26:59;14.50;99.90
15328;DHT22;7764;51.430;6.840;2022-09-12T01:30:14;14.60;99.90
15328;DHT22;7764;51.430;6.840;2022-09-12T01:32:52;14.60;99.90
15328;DHT22;7764;51.430;6.840;2022-09-12T01:35:24;14.60;99.90
15328;DHT22;7764;51.430;6.840;2022-09-12T01:38:04;14.60;99.90
15328;DHT22;7764;51.430;6.840;2022-09-12T01:40:40;14.60;99.90
15328;DHT22;7764;51.430;6.840;2022-09-12T01:43:16;14.60;99.90
15328;DHT22;7764;51.430;6.840;2022-09-12T01:45:52;14.50;99.90
15328;DHT22;7764;51.430;6.840;2022-09-12T01:48:25;14.60;99.90
15328;DHT22;7764;51.430;6.840;2022-09-12T01:50:57;14.60;99.90
15328;DHT22;7764;51.430;6.840;2022-09-12T01:53:29;14.50;99.90
15328;DHT22;7764;51.430;6.840;2022-09-12T01:56:01;14.40;99.90
15328;DHT22;7764;51.430;6.840;2022-09-12T01:58:35;14.40;99.90
15328;DHT22;7764;51.430;6.840;2022-09-12T02:01:09;14.30;99.90
15328;DHT22;7764;51.430;6.840;2022-09-12T02:03:40;14.30;99.90
15328;DHT22;7764;51.430;6.840;2022-09-12T02:06:16;14.20;99.90
15328;DHT22;7764;51.430;6.840;2022-09-12T02:08:47;14.20;99.90
15328;DHT22;7764;51.430;6.840;2022-09-12T02:11:15;14.20;99.90
15328;DHT22;7764;51.430;6.840;2022-09-12T02:13:43;14.20;99.90
15328;DHT22;7764;51.430;6.840;2022-09-12T02:16:16;14.10;99.90
15328;DHT22;7764;51.430;6.840;2022-09-12T02:18:47;14.10;99.90
15328;DHT22;7764;51.430;6.840;2022-09-12T02:21:16;14.10;99.90
15328;DHT22;7764;51.430;6.840;2022-09-12T02:23:47;14.10;99.90
15328;DHT22;7764;51.430;6.840;2022-09-12T02:26:19;14.00;99.90
15328;DHT22;7764;51.430;6.840;2022-09-12T02:28:47;14.00;99.90
15328;DHT22;7764;51.430;6.840;2022-09-12T02:31:20;14.00;99.90
15328;DHT22;7764;51.430;6.840;2022-09-12T02:33:53;14.00;99.90
15328;DHT22;7764;51.430;6.840;2022-09-12T02:36:31;14.00;99.90
15328;DHT22;7764;51.430;6.840;2022-09-12T02:39:00;14.00;99.90
15328;DHT22;7764;51.430;6.840;2022-09-12T02:41:27;14.00;99.90
15328;DHT22;7764;51.430;6.840;2022-09-12T02:43:54;14.00;99.90
15328;DHT22;7764;51.430;6.840;2022-09-12T02:46:26;14.00;99.90
15328;DHT22;7764;51.430;6.840;2022-09-12T02:48:54;13.90;99.90
15328;DHT22;7764;51.430;6.840;2022-09-12T02:51:22;13.90;99.90
15328;DHT22;7764;51.430;6.840;2022-09-12T02:53:50;13.90;99.90
15328;DHT22;7764;51.430;6.840;2022-09-12T02:56:20;13.90;99.90
15328;DHT22;7764;51.430;6.840;2022-09-12T02:58:48;13.90;99.90
15328;DHT22;7764;51.430;6.840;2022-09-12T03:01:24;13.80;99.90
15328;DHT22;7764;51.430;6.840;2022-09-12T03:04:23;13.90;99.90
15328;DHT22;7764;51.430;6.840;2022-09-12T03:06:58;13.90;99.90
15328;DHT22;7764;51.430;6.840;2022-09-12T03:09:35;13.80;99.90
15328;DHT22;7764;51.430;6.840;2022-09-12T03:12:12;13.80;99.90
15328;DHT22;7764;51.430;6.840;2022-09-12T03:15:06;13.80;99.90
15328;DHT22;7764;51.430;6.840;2022-09-12T03:17:46;13.80;99.90
15328;DHT22;7764;51.430;6.840;2022-09-12T03:20:23;13.70;99.90
15328;DHT22;7764;51.430;6.840;2022-09-12T03:22:57;13.80;99.90
15328;DHT22;7764;51.430;6.840;2022-09-12T03:25:28;13.80;99.90
15328;DHT22;7764;51.430;6.840;2022-09-12T03:27:59;13.70;99.90
15328;DHT22;7764;51.430;6.840;2022-09-12T03:30:30;13.70;99.90
15328;DHT22;7764;51.430;6.840;2022-09-12T03:33:04;13.80;99.90
15328;DHT22;7764;51.430;6.840;2022-09-12T03:35:30;13.80;99.90
15328;DHT22;7764;51.430;6.840;2022-09-12T03:37:57;13.70;99.90
15328;DHT22;7764;51.430;6.840;2022-09-12T03:40:24;13.80;99.90
15328;DHT22;7764;51.430;6.840;2022-09-12T03:42:51;13.80;99.90
15328;DHT22;7764;51.430;6.840;2022-09-12T03:45:18;13.80;99.90
15328;DHT22;7764;51.430;6.840;2022-09-12T03:47:45;13.70;99.90
15328;DHT22;7764;51.430;6.840;2022-09-12T03:50:13;13.70;99.90
15328;DHT22;7764;51.430;6.840;2022-09-12T03:52:40;13.70;99.90
15328;DHT22;7764;51.430;6.840;2022-09-12T03:55:07;13.70;99.90
15328;DHT22;7764;51.430;6.840;2022-09-12T03:57:34;13.70;99.90
15328;DHT22;7764;51.430;6.840;2022-09-12T04:00:03;13.70;99.90
15328;DHT22;7764;51.430;6.840;2022-09-12T04:02:30;13.80;99.90
15328;DHT22;7764;51.430;6.840;2022-09-12T04:04:57;13.70;99.90
15328;DHT22;7764;51.430;6.840;2022-09-12T04:07:25;13.70;99.90
15328;DHT22;7764;51.430;6.840;2022-09-12T04:09:52;13.70;99.90
15328;DHT22;7764;51.430;6.840;2022-09-12T04:12:19;13.70;99.90
15328;DHT22;7764;51.430;6.840;2022-09-12T04:14:46;13.60;99.90
15328;DHT22;7764;51.430;6.840;2022-09-12T04:17:14;13.60;99.90
15328;DHT22;7764;51.430;6.840;2022-09-12T04:19:41;13.60;99.90
15328;DHT22;7764;51.430;6.840;2022-09-12T04:22:08;13.60;99.90
15328;DHT22;7764;51.430;6.840;2022-09-12T04:24:36;13.60;99.90
15328;DHT22;7764;51.430;6.840;2022-09-12T04:27:03;13.60;99.90
15328;DHT22;7764;51.430;6.840;2022-09-12T04:29:30;13.70;99.90
15328;DHT22;7764;51.430;6.840;2022-09-12T04:31:57;13.70;99.90
15328;DHT22;7764;51.430;6.840;2022-09-12T04:34:24;13.70;99.90
15328;DHT22;7764;51.430;6.840;2022-09-12T04:36:50;13.60;99.90
15328;DHT22;7764;51.430;6.840;2022-09-12T04:39:17;13.60;99.90
15328;DHT22;7764;51.430;6.840;2022-09-12T04:41:46;13.60;99.90
15328;DHT22;7764;51.430;6.840;2022-09-12T04:44:13;13.60;99.90
15328;DHT22;7764;51.430;6.840;2022-09-12T04:46:42;13.70;99.90
15328;DHT22;7764;51.430;6.840;2022-09-12T04:49:10;13.70;99.90
15328;DHT22;7764;51.430;6.840;2022-09-12T04:51:39;13.70;99.90
15328;DHT22;7764;51.430;6.840;2022-09-12T04:54:09;13.70;99.90
15328;DHT22;7764;51.430;6.840;2022-09-12T04:56:37;13.70;99.90
15328;DHT22;7764;51.430;6.840;2022-09-12T04:59:06;13.80;99.90
15328;DHT22;7764;51.430;6.840;2022-09-12T05:01:34;13.80;99.90
15328;DHT22;7764;51.430;6.840;2022-09-12T05:04:01;13.80;99.90
15328;DHT22;7764;51.430;6.840;2022-09-12T05:06:30;13.80;99.90
15328;DHT22;7764;51.430;6.840;2022-09-12T05:08:58;13.80;99.90
15328;DHT22;7764;51.430;6.840;2022-09-12T05:11:27;13.90;99.90
15328;DHT22;7764;51.430;6.840;2022-09-12T05:13:55;13.90;99.90
15328;DHT22;7764;51.430;6.840;2022-09-12T05:16:24;13.90;99.90
15328;DHT22;7764;51.430;6.840;2022-09-12T05:18:52;13.90;99.90
15328;DHT22;7764;51.430;6.840;2022-09-12T05:21:20;14.00;99.90
15328;DHT22;7764;51.430;6.840;2022-09-12T05:23:50;14.00;99.90
15328;DHT22;7764;51.430;6.840;2022-09-12T05:26:17;14.00;99.90
15328;DHT22;7764;51.430;6.840;2022-09-12T05:28:46;14.10;99.90
15328;DHT22;7764;51.430;6.840;2022-09-12T05:31:15;14.10;99.90
15328;DHT22;7764;51.430;6.840;2022-09-12T05:33:45;14.20;99.90
15328;DHT22;7764;51.430;6.840;2022-09-12T05:36:15;14.30;99.90
15328;DHT22;7764;51.430;6.840;2022-09-12T05:38:43;14.30;99.90
15328;DHT22;7764;51.430;6.840;2022-09-12T05:41:11;14.40;99.90
15328;DHT22;7764;51.430;6.840;2022-09-12T05:43:39;14.60;99.90
15328;DHT22;7764;51.430;6.840;2022-09-12T05:46:08;14.70;99.90
15328;DHT22;7764;51.430;6.840;2022-09-12T05:48:35;14.80;99.90
15328;DHT22;7764;51.430;6.840;2022-09-12T05:51:05;15.00;99.90
15328;DHT22;7764;51.430;6.840;2022-09-12T05:53:33;15.10;99.90
15328;DHT22;7764;51.430;6.840;2022-09-12T05:56:02;15.20;99.90
15328;DHT22;7764;51.430;6.840;2022-09-12T05:58:29;15.40;99.90
15328;DHT22;7764;51.430;6.840;2022-09-12T06:01:01;15.50;99.90
15328;DHT22;7764;51.430;6.840;2022-09-12T06:03:28;15.60;99.90
15328;DHT22;7764;51.430;6.840;2022-09-12T06:05:55;15.70;99.90
15328;DHT22;7764;51.430;6.840;2022-09-12T06:08:24;15.80;99.90
15328;DHT22;7764;51.430;6.840;2022-09-12T06:10:55;15.90;99.90
15328;DHT22;7764;51.430;6.840;2022-09-12T06:13:24;15.90;99.90
15328;DHT22;7764;51.430;6.840;2022-09-12T06:15:50;16.00;99.90
15328;DHT22;7764;51.430;6.840;2022-09-12T06:18:18;16.20;99.90
15328;DHT22;7764;51.430;6.840;2022-09-12T06:20:46;16.30;99.90
15328;DHT22;7764;51.430;6.840;2022-09-12T06:23:13;16.30;99.90
15328;DHT22;7764;51.430;6.840;2022-09-12T06:25:46;16.50;99.90
15328;DHT22;7764;51.430;6.840;2022-09-12T06:28:14;16.50;99.90
15328;DHT22;7764;51.430;6.840;2022-09-12T06:30:41;16.60;99.90
15328;DHT22;7764;51.430;6.840;2022-09-12T06:33:08;16.80;99.90
15328;DHT22;7764;51.430;6.840;2022-09-12T06:35:36;17.00;99.90
15328;DHT22;7764;51.430;6.840;2022-09-12T06:38:03;17.20;99.90
15328;DHT22;7764;51.430;6.840;2022-09-12T06:40:30;17.40;99.90
15328;DHT22;7764;51.430;6.840;2022-09-12T06:42:59;17.70;99.90
15328;DHT22;7764;51.430;6.840;2022-09-12T06:45:25;18.00;99.90
15328;DHT22;7764;51.430;6.840;2022-09-12T06:47:54;18.20;99.90
15328;DHT22;7764;51.430;6.840;2022-09-12T06:50:21;18.30;99.90
15328;DHT22;7764;51.430;6.840;2022-09-12T06:52:48;18.50;99.90
15328;DHT22;7764;51.430;6.840;2022-09-12T06:55:15;18.40;99.90
15328;DHT22;7764;51.430;6.840;2022-09-12T06:57:42;18.40;99.90
15328;DHT22;7764;51.430;6.840;2022-09-12T07:00:12;18.60;99.90
15328;DHT22;7764;51.430;6.840;2022-09-12T07:02:39;18.60;99.90
15328;DHT22;7764;51.430;6.840;2022-09-12T07:05:06;18.60;99.90
15328;DHT22;7764;51.430;6.840;2022-09-12T07:07:35;18.70;99.90
15328;DHT22;7764;51.430;6.840;2022-09-12T07:10:02;18.60;99.90
15328;DHT22;7764;51.430;6.840;2022-09-12T07:12:28;18.60;99.90
15328;DHT22;7764;51.430;6.840;2022-09-12T07:14:55;18.60;99.90
15328;DHT22;7764;51.430;6.840;2022-09-12T07:17:23;18.60;99.90
15328;DHT22;7764;51.430;6.840;2022-09-12T07:19:50;18.50;99.90
15328;DHT22;7764;51.430;6.840;2022-09-12T07:22:17;18.60;99.90
15328;DHT22;7764;51.430;6.840;2022-09-12T07:24:44;18.60;99.90
15328;DHT22;7764;51.430;6.840;2022-09-12T07:27:13;18.50;99.90
15328;DHT22;7764;51.430;6.840;2022-09-12T07:29:40;18.50;99.90
15328;DHT22;7764;51.430;6.840;2022-09-12T07:32:08;18.50;99.90
15328;DHT22;7764;51.430;6.840;2022-09-12T07:34:38;18.50;99.90
15328;DHT22;7764;51.430;6.840;2022-09-12T07:37:04;18.50;99.90
15328;DHT22;7764;51.430;6.840;2022-09-12T07:39:31;18.60;99.90
15328;DHT22;7764;51.430;6.840;2022-09-12T07:41:58;18.60;99.90
15328;DHT22;7764;51.430;6.840;2022-09-12T07:44:26;18.80;99.90
15328;DHT22;7764;51.430;6.840;2022-09-12T07:46:52;18.90;99.90
15328;DHT22;7764;51.430;6.840;2022-09-12T07:49:19;18.80;99.90
15328;DHT22;7764;51.430;6.840;2022-09-12T07:51:47;18.90;99.90
15328;DHT22;7764;51.430;6.840;2022-09-12T07:54:14;18.90;99.90
15328;DHT22;7764;51.430;6.840;2022-09-12T07:56:42;18.90;99.90
15328;DHT22;7764;51.430;6.840;2022-09-12T07:59:10;19.00;99.90
15328;DHT22;7764;51.430;6.840;2022-09-12T08:01:36;19.00;99.90
15328;DHT22;7764;51.430;6.840;2022-09-12T08:04:05;19.00;99.90
15328;DHT22;7764;51.430;6.840;2022-09-12T08:06:33;19.00;99.90
15328;DHT22;7764;51.430;6.840;2022-09-12T08:09:02;19.00;99.90
15328;DHT22;7764;51.430;6.840;2022-09-12T08:11:29;19.00;99.90
15328;DHT22;7764;51.430;6.840;2022-09-12T08:13:56;19.00;99.90
15328;DHT22;7764;51.430;6.840;2022-09-12T08:16:25;19.00;99.90
15328;DHT22;7764;51.430;6.840;2022-09-12T08:18:54;19.10;99.90
15328;DHT22;7764;51.430;6.840;2022-09-12T08:21:23;19.30;99.90
15328;DHT22;7764;51.430;6.840;2022-09-12T08:23:51;19.50;99.90
15328;DHT22;7764;51.430;6.840;2022-09-12T08:26:20;19.60;99.90
15328;DHT22;7764;51.430;6.840;2022-09-12T08:28:48;19.60;99.90
15328;DHT22;7764;51.430;6.840;2022-09-12T08:31:17;19.70;99.90
15328;DHT22;7764;51.430;6.840;2022-09-12T08:33:44;19.80;99.90
15328;DHT22;7764;51.430;6.840;2022-09-12T08:36:13;19.90;99.90
15328;DHT22;7764;51.430;6.840;2022-09-12T08:38:42;20.10;99.90
15328;DHT22;7764;51.430;6.840;2022-09-12T08:41:13;20.20;99.90
15328;DHT22;7764;51.430;6.840;2022-09-12T08:44:06;20.40;99.90
15328;DHT22;7764;51.430;6.840;2022-09-12T08:46:42;20.60;99.90
15328;DHT22;7764;51.430;6.840;2022-09-12T08:49:23;20.70;99.90
15328;DHT22;7764;51.430;6.840;2022-09-12T08:51:51;20.50;99.90
15328;DHT22;7764;51.430;6.840;2022-09-12T08:54:22;20.60;99.90
15328;DHT22;7764;51.430;6.840;2022-09-12T08:56:55;20.70;99.90
15328;DHT22;7764;51.430;6.840;2022-09-12T08:59:24;20.70;99.90
15328;DHT22;7764;51.430;6.840;2022-09-12T09:01:54;20.80;99.90
15328;DHT22;7764;51.430;6.840;2022-09-12T09:04:42;20.90;99.90
15328;DHT22;7764;51.430;6.840;2022-09-12T09:07:37;20.90;99.90
15328;DHT22;7764;51.430;6.840;2022-09-12T09:10:13;21.00;99.90
15328;DHT22;7764;51.430;6.840;2022-09-12T09:12:50;21.10;99.90
15328;DHT22;7764;51.430;6.840;2022-09-12T09:15:40;21.20;99.90
15328;DHT22;7764;51.430;6.840;2022-09-12T09:18:15;21.30;99.90
15328;DHT22;7764;51.430;6.840;2022-09-12T09:20:47;21.50;99.90
15328;DHT22;7764;51.430;6.840;2022-09-12T09:23:20;21.60;99.90
15328;DHT22;7764;51.430;6.840;2022-09-12T09:25:52;21.80;99.90
15328;DHT22;7764;51.430;6.840;2022-09-12T09:28:25;21.80;99.90
15328;DHT22;7764;51.430;6.840;2022-09-12T09:30:58;21.90;99.90
15328;DHT22;7764;51.430;6.840;2022-09-12T09:33:28;21.90;99.90
15328;DHT22;7764;51.430;6.840;2022-09-12T09:36:04;21.90;99.90
15328;DHT22;7764;51.430;6.840;2022-09-12T09:38:44;21.90;99.90
15328;DHT22;7764;51.430;6.840;2022-09-12T09:41:29;22.10;99.90
15328;DHT22;7764;51.430;6.840;2022-09-12T09:43:59;22.20;99.90
15328;DHT22;7764;51.430;6.840;2022-09-12T09:46:28;22.20;99.90
15328;DHT22;7764;51.430;6.840;2022-09-12T09:48:57;22.30;99.90
15328;DHT22;7764;51.430;6.840;2022-09-12T09:51:33;22.40;99.90
15328;DHT22;7764;51.430;6.840;2022-09-12T09:54:02;22.50;99.90
15328;DHT22;7764;51.430;6.840;2022-09-12T09:56:35;22.40;99.90
15328;DHT22;7764;51.430;6.840;2022-09-12T09:59:09;22.50;99.90
15328;DHT22;7764;51.430;6.840;2022-09-12T10:01:43;22.50;99.90
15328;DHT22;7764;51.430;6.840;2022-09-12T10:04:18;22.60;99.90
15328;DHT22;7764;51.430;6.840;2022-09-12T10:06:45;22.70;99.90
15328;DHT22;7764;51.430;6.840;2022-09-12T10:09:22;22.60;99.90
15328;DHT22;7764;51.430;6.840;2022-09-12T10:11:50;22.60;99.90
15328;DHT22;7764;51.430;6.840;2022-09-12T10:14:32;22.90;99.90
15328;DHT22;7764;51.430;6.840;2022-09-12T10:17:04;22.70;99.90
15328;DHT22;7764;51.430;6.840;2022-09-12T10:19:46;22.60;99.90
15328;DHT22;7764;51.430;6.840;2022-09-12T10:22:17;22.70;99.90
15328;DHT22;7764;51.430;6.840;2022-09-12T10:24:47;22.80;99.90
15328;DHT22;7764;51.430;6.840;2022-09-12T10:27:18;22.90;99.90
15328;DHT22;7764;51.430;6.840;2022-09-12T10:29:48;23.00;99.90
15328;DHT22;7764;51.430;6.840;2022-09-12T10:32:25;23.10;99.90
15328;DHT22;7764;51.430;6.840;2022-09-12T10:34:56;23.10;99.90
15328;DHT22;7764;51.430;6.840;2022-09-12T10:37:29;23.00;99.90
15328;DHT22;7764;51.430;6.840;2022-09-12T10:39:57;23.10;99.90
15328;DHT22;7764;51.430;6.840;2022-09-12T10:42:44;23.10;99.90
15328;DHT22;7764;51.430;6.840;2022-09-12T10:45:23;23.10;99.90
15328;DHT22;7764;51.430;6.840;2022-09-12T10:47:52;23.20;99.90
15328;DHT22;7764;51.430;6.840;2022-09-12T10:50:22;23.30;99.90
15328;DHT22;7764;51.430;6.840;2022-09-12T10:52:50;23.30;99.90
15328;DHT22;7764;51.430;6.840;2022-09-12T10:55:21;23.30;99.90
15328;DHT22;7764;51.430;6.840;2022-09-12T10:58:02;23.40;99.90
15328;DHT22;7764;51.430;6.840;2022-09-12T11:00:35;23.30;99.90
15328;DHT22;7764;51.430;6.840;2022-09-12T11:03:14;23.40;99.90
15328;DHT22;7764;51.430;6.840;2022-09-12T11:05:54;23.30;99.90
15328;DHT22;7764;51.430;6.840;2022-09-12T11:08:39;23.40;99.90
15328;DHT22;7764;51.430;6.840;2022-09-12T11:11:19;23.30;99.90
15328;DHT22;7764;51.430;6.840;2022-09-12T11:14:03;23.40;99.90
15328;DHT22;7764;51.430;6.840;2022-09-12T11:16:38;23.30;99.90
15328;DHT22;7764;51.430;6.840;2022-09-12T11:19:19;23.40;99.90
15328;DHT22;7764;51.430;6.840;2022-09-12T11:22:00;23.50;99.90
15328;DHT22;7764;51.430;6.840;2022-09-12T11:24:46;23.50;99.90
15328;DHT22;7764;51.430;6.840;2022-09-12T11:27:26;23.60;99.90
15328;DHT22;7764;51.430;6.840;2022-09-12T11:29:58;23.60;99.90
15328;DHT22;7764;51.430;6.840;2022-09-12T11:35:32;23.70;99.90
15328;DHT22;7764;51.430;6.840;2022-09-12T11:38:14;23.70;99.90
15328;DHT22;7764;51.430;6.840;2022-09-12T11:40:48;23.70;99.90
15328;DHT22;7764;51.430;6.840;2022-09-12T11:43:25;23.80;99.90
15328;DHT22;7764;51.430;6.840;2022-09-12T11:45:57;23.80;99.90
15328;DHT22;7764;51.430;6.840;2022-09-12T11:48:36;23.70;99.90
15328;DHT22;7764;51.430;6.840;2022-09-12T11:51:16;23.80;99.90
15328;DHT22;7764;51.430;6.840;2022-09-12T11:53:56;23.80;99.90
15328;DHT22;7764;51.430;6.840;2022-09-12T11:56:24;23.60;99.90
15328;DHT22;7764;51.430;6.840;2022-09-12T11:58:56;23.70;99.90
15328;DHT22;7764;51.430;6.840;2022-09-12T12:01:27;23.80;99.90
15328;DHT22;7764;51.430;6.840;2022-09-12T12:03:55;23.70;99.90
15328;DHT22;7764;51.430;6.840;2022-09-12T12:06:30;23.80;99.90
15328;DHT22;7764;51.430;6.840;2022-09-12T12:08:57;23.70;99.90
15328;DHT22;7764;51.430;6.840;2022-09-12T12:11:30;23.80;99.90
15328;DHT22;7764;51.430;6.840;2022-09-12T12:14:02;23.80;99.90
15328;DHT22;7764;51.430;6.840;2022-09-12T12:16:31;23.90;99.90
15328;DHT22;7764;51.430;6.840;2022-09-12T12:19:00;24.00;99.90
15328;DHT22;7764;51.430;6.840;2022-09-12T12:21:38;24.00;99.90
15328;DHT22;7764;51.430;6.840;2022-09-12T12:24:15;23.90;99.90
15328;DHT22;7764;51.430;6.840;2022-09-12T12:26:54;24.00;99.90
15328;DHT22;7764;51.430;6.840;2022-09-12T12:29:42;23.90;99.90
15328;DHT22;7764;51.430;6.840;2022-09-12T12:32:20;24.10;99.90
15328;DHT22;7764;51.430;6.840;2022-09-12T12:34:47;24.10;99.90
15328;DHT22;7764;51.430;6.840;2022-09-12T12:37:51;24.10;99.90
15328;DHT22;7764;51.430;6.840;2022-09-12T12:40:24;24.20;99.90
15328;DHT22;7764;51.430;6.840;2022-09-12T12:43:02;24.10;99.90
15328;DHT22;7764;51.430;6.840;2022-09-12T12:48:49;24.20;99.90
15328;DHT22;7764;51.430;6.840;2022-09-12T12:51:48;24.20;99.90
15328;DHT22;7764;51.430;6.840;2022-09-12T12:57:22;24.00;99.90
15328;DHT22;7764;51.430;6.840;2022-09-12T12:59:55;24.10;99.90
15328;DHT22;7764;51.430;6.840;2022-09-12T13:02:27;24.20;99.90
15328;DHT22;7764;51.430;6.840;2022-09-12T13:04:58;24.30;99.90
15328;DHT22;7764;51.430;6.840;2022-09-12T13:07:30;24.40;99.90
15328;DHT22;7764;51.430;6.840;2022-09-12T13:10:00;24.50;99.90
15328;DHT22;7764;51.430;6.840;2022-09-12T13:12:31;24.50;99.90
15328;DHT22;7764;51.430;6.840;2022-09-12T13:14:59;24.40;99.90
15328;DHT22;7764;51.430;6.840;2022-09-12T13:17:30;24.50;99.90
15328;DHT22;7764;51.430;6.840;2022-09-12T13:20:16;24.50;99.90
15328;DHT22;7764;51.430;6.840;2022-09-12T13:22:45;24.40;99.90
15328;DHT22;7764;51.430;6.840;2022-09-12T13:25:23;24.40;99.90
15328;DHT22;7764;51.430;6.840;2022-09-12T13:28:02;24.40;99.90
15328;DHT22;7764;51.430;6.840;2022-09-12T13:30:32;24.40;99.90
15328;DHT22;7764;51.430;6.840;2022-09-12T13:33:08;24.30;99.90
15328;DHT22;7764;51.430;6.840;2022-09-12T13:35:42;24.30;99.90
15328;DHT22;7764;51.430;6.840;2022-09-12T13:38:16;24.40;99.90
15328;DHT22;7764;51.430;6.840;2022-09-12T13:41:04;24.40;99.90
15328;DHT22;7764;51.430;6.840;2022-09-12T13:43:36;24.50;99.90
15328;DHT22;7764;51.430;6.840;2022-09-12T13:46:05;24.40;99.90
15328;DHT22;7764;51.430;6.840;2022-09-12T13:48:33;24.50;99.90
15328;DHT22;7764;51.430;6.840;2022-09-12T13:51:00;24.50;99.90
15328;DHT22;7764;51.430;6.840;2022-09-12T13:53:31;24.50;99.90
15328;DHT22;7764;51.430;6.840;2022-09-12T13:56:02;24.50;99.90
15328;DHT22;7764;51.430;6.840;2022-09-12T13:58:30;24.40;99.90
15328;DHT22;7764;51.430;6.840;2022-09-12T14:01:05;24.50;99.90
15328;DHT22;7764;51.430;6.840;2022-09-12T14:03:33;24.60;99.90
15328;DHT22;7764;51.430;6.840;2022-09-12T14:06:21;24.60;99.90
15328;DHT22;7764;51.430;6.840;2022-09-12T14:08:51;24.70;99.60
15328;DHT22;7764;51.430;6.840;2022-09-12T14:11:23;24.70;96.30
15328;DHT22;7764;51.430;6.840;2022-09-12T14:13:51;24.70;99.00
15328;DHT22;7764;51.430;6.840;2022-09-12T14:16:18;24.70;95.80
15328;DHT22;7764;51.430;6.840;2022-09-12T14:18:48;24.80;97.90
15328;DHT22;7764;51.430;6.840;2022-09-12T14:21:32;24.80;97.70
15328;DHT22;7764;51.430;6.840;2022-09-12T14:24:00;24.70;97.60
15328;DHT22;7764;51.430;6.840;2022-09-12T14:26:32;24.70;99.00
15328;DHT22;7764;51.430;6.840;2022-09-12T14:29:01;24.70;99.90
15328;DHT22;7764;51.430;6.840;2022-09-12T14:31:31;24.70;99.50
15328;DHT22;7764;51.430;6.840;2022-09-12T14:34:09;24.70;99.90
15328;DHT22;7764;51.430;6.840;2022-09-12T14:36:40;24.70;99.90
15328;DHT22;7764;51.430;6.840;2022-09-12T14:39:17;24.80;99.90
15328;DHT22;7764;51.430;6.840;2022-09-12T14:41:46;24.90;97.30
15328;DHT22;7764;51.430;6.840;2022-09-12T14:44:16;24.80;97.70
15328;DHT22;7764;51.430;6.840;2022-09-12T14:46:46;24.70;94.50
15328;DHT22;7764;51.430;6.840;2022-09-12T14:49:16;24.80;97.30
15328;DHT22;7764;51.430;6.840;2022-09-12T14:51:52;24.80;97.90
15328;DHT22;7764;51.430;6.840;2022-09-12T14:54:36;24.70;97.60
15328;DHT22;7764;51.430;6.840;2022-09-12T14:57:29;24.60;99.90
15328;DHT22;7764;51.430;6.840;2022-09-12T15:02:47;24.70;98.20
15328;DHT22;7764;51.430;6.840;2022-09-12T15:05:17;24.70;98.10
15328;DHT22;7764;51.430;6.840;2022-09-12T15:07:50;24.70;99.00
15328;DHT22;7764;51.430;6.840;2022-09-12T15:10:20;24.70;97.30
15328;DHT22;7764;51.430;6.840;2022-09-12T15:13:03;24.70;96.80
15328;DHT22;7764;51.430;6.840;2022-09-12T15:15:37;24.60;99.90
15328;DHT22;7764;51.430;6.840;2022-09-12T15:18:05;24.60;99.90
15328;DHT22;7764;51.430;6.840;2022-09-12T15:20:33;24.50;99.90
15328;DHT22;7764;51.430;6.840;2022-09-12T15:22:59;24.50;99.90
15328;DHT22;7764;51.430;6.840;2022-09-12T15:25:26;24.50;99.90
15328;DHT22;7764;51.430;6.840;2022-09-12T15:27:55;24.50;99.90
15328;DHT22;7764;51.430;6.840;2022-09-12T15:30:22;24.40;99.90
15328;DHT22;7764;51.430;6.840;2022-09-12T15:32:49;24.40;99.90
15328;DHT22;7764;51.430;6.840;2022-09-12T15:35:16;24.40;99.90
15328;DHT22;7764;51.430;6.840;2022-09-12T15:37:44;24.30;99.90
15328;DHT22;7764;51.430;6.840;2022-09-12T15:40:11;24.40;99.90
15328;DHT22;7764;51.430;6.840;2022-09-12T15:42:38;24.40;99.90
15328;DHT22;7764;51.430;6.840;2022-09-12T15:45:15;24.40;98.30
15328;DHT22;7764;51.430;6.840;2022-09-12T15:47:42;24.40;99.90
15328;DHT22;7764;51.430;6.840;2022-09-12T15:50:09;24.30;99.50
15328;DHT22;7764;51.430;6.840;2022-09-12T15:52:36;24.30;96.80
15328;DHT22;7764;51.430;6.840;2022-09-12T15:55:04;24.40;97.50
15328;DHT22;7764;51.430;6.840;2022-09-12T15:57:31;24.30;99.90
15328;DHT22;7764;51.430;6.840;2022-09-12T15:59:59;24.20;99.90
15328;DHT22;7764;51.430;6.840;2022-09-12T16:02:27;24.20;99.90
15328;DHT22;7764;51.430;6.840;2022-09-12T16:04:54;24.20;99.90
15328;DHT22;7764;51.430;6.840;2022-09-12T16:07:21;24.10;99.90
15328;DHT22;7764;51.430;6.840;2022-09-12T16:09:48;24.10;99.90
15328;DHT22;7764;51.430;6.840;2022-09-12T16:12:15;24.10;99.90
15328;DHT22;7764;51.430;6.840;2022-09-12T16:14:42;24.00;99.90
15328;DHT22;7764;51.430;6.840;2022-09-12T16:17:09;24.00;99.90
15328;DHT22;7764;51.430;6.840;2022-09-12T16:19:37;23.90;99.90
15328;DHT22;7764;51.430;6.840;2022-09-12T16:22:04;23.90;99.90
15328;DHT22;7764;51.430;6.840;2022-09-12T16:24:31;23.90;99.90
15328;DHT22;7764;51.430;6.840;2022-09-12T16:26:58;23.90;99.90